Time;durP1;ratioP1;P1;durP2;ratioP2;P2;SDS_P1;SDS_P2;PMS_P1;PMS_P2;Temp;Humidity;BMP_temperature;BMP_pressure;BME280_temperature;BME280_humidity;BME280_pressure;Samples;Min_cycle;Max_cycle;Signal;HPM_P1;HPM_P2
2023/04/01 00:02:19;;;;;;;1.67;0.80;;;18.20;61.20;;;;;;5026594;28;20213;-46
2023/04/01 00:04:49;;;;;;;2.00;0.77;;;18.20;61.20;;;;;;5032766;28;20198;-46
2023/04/01 00:07:23;;;;;;;1.60;0.70;;;18.20;61.20;;;;;;5050259;28;20616;-46
2023/04/01 00:09:57;;;;;;;2.03;1.00;;;18.20;61.10;;;;;;5050385;28;20607;-46
2023/04/01 00:12:29;;;;;;;1.27;0.60;;;18.20;61.10;;;;;;5044453;28;20198;-46
2023/04/01 00:14:59;;;;;;;1.57;0.60;;;18.20;61.10;;;;;;5048017;28;20257;-46
2023/04/01 00:17:27;;;;;;;1.47;0.60;;;18.10;61.10;;;;;;5031146;28;20233;-46
2023/04/01 00:20:00;;;;;;;1.00;0.50;;;18.20;61.20;;;;;;5028311;28;20190;-46
2023/04/01 00:22:31;;;;;;;1.77;0.60;;;18.20;61.20;;;;;;5056278;28;20210;-46
2023/04/01 00:25:04;;;;;;;1.53;0.63;;;18.10;61.20;;;;;;5055814;28;20688;-46
2023/04/01 00:27:35;;;;;;;1.17;0.70;;;18.20;61.30;;;;;;5031177;28;20213;-46
2023/04/01 00:30:10;;;;;;;1.37;0.50;;;18.20;61.30;;;;;;5035958;28;20186;-46
2023/04/01 00:32:56;;;;;;;2.67;0.77;;;18.20;61.40;;;;;;5048886;28;20301;-46
2023/04/01 00:35:28;;;;;;;1.07;0.50;;;18.10;61.30;;;;;;5049292;28;20210;-46
2023/04/01 00:37:59;;;;;;;2.57;0.53;;;18.10;61.30;;;;;;5047913;28;20644;-46
2023/04/01 00:40:37;;;;;;;2.10;0.60;;;18.20;61.30;;;;;;5048323;28;20195;-46
2023/04/01 00:43:18;;;;;;;1.53;0.57;;;18.10;61.30;;;;;;5050786;28;20204;-46
2023/04/01 00:45:49;;;;;;;2.80;0.80;;;18.20;61.30;;;;;;5041857;28;20213;-46
2023/04/01 00:48:32;;;;;;;2.57;0.50;;;18.10;61.30;;;;;;5033669;28;20273;-46
2023/04/01 00:51:14;;;;;;;1.00;0.50;;;18.10;61.40;;;;;;5052235;28;20594;-46
2023/04/01 00:53:49;;;;;;;2.00;1.13;;;18.10;61.30;;;;;;5034554;28;20202;-46
2023/04/01 00:56:22;;;;;;;1.27;0.50;;;18.10;61.40;;;;;;5035010;28;20216;-46
2023/04/01 00:59:08;;;;;;;1.40;0.53;;;18.10;61.30;;;;;;5050059;28;20214;-46
2023/04/01 01:01:44;;;;;;;1.23;0.50;;;18.10;61.40;;;;;;5031654;28;20194;-46
2023/04/01 01:04:32;;;;;;;1.47;0.63;;;18.10;61.50;;;;;;5048471;28;20272;-46
2023/04/01 01:07:32;;;;;;;1.47;0.43;;;18.10;61.40;;;;;;5031129;28;20220;-46
2023/04/01 01:10:24;;;;;;;1.73;0.60;;;18.10;61.40;;;;;;5048499;28;20203;-46
2023/04/01 01:13:17;;;;;;;2.33;0.83;;;18.10;61.60;;;;;;5050746;28;20230;-46
2023/04/01 01:16:02;;;;;;;2.20;0.60;;;18.10;61.60;;;;;;5045784;28;20203;-46
2023/04/01 01:18:56;;;;;;;1.30;0.77;;;18.00;61.60;;;;;;5028201;28;20198;-46
2023/04/01 01:22:02;;;;;;;0.93;0.50;;;18.00;61.60;;;;;;5030724;28;20628;-46
2023/04/01 01:24:42;;;;;;;2.60;0.70;;;18.10;61.60;;;;;;5051353;28;20209;-46
2023/04/01 01:27:23;;;;;;;2.10;0.50;;;18.00;61.70;;;;;;5047854;28;20643;-46
2023/04/01 01:30:15;;;;;;;0.50;0.47;;;18.00;61.70;;;;;;5049963;28;20205;-46
2023/04/01 01:33:24;;;;;;;3.80;0.70;;;18.00;61.70;;;;;;5048553;28;20755;-46
2023/04/01 01:35:59;;;;;;;1.10;0.30;;;18.00;61.70;;;;;;5047957;28;20201;-46
2023/04/01 01:38:30;;;;;;;1.03;0.40;;;18.00;61.70;;;;;;5029589;28;20202;-46
2023/04/01 01:41:02;;;;;;;1.03;0.57;;;18.00;61.80;;;;;;5029278;28;20244;-46
2023/04/01 01:43:36;;;;;;;1.60;0.40;;;17.90;61.80;;;;;;5029800;28;20202;-46
2023/04/01 01:46:15;;;;;;;1.17;0.57;;;18.00;61.80;;;;;;5031557;28;20207;-46
2023/04/01 01:48:45;;;;;;;1.33;0.50;;;18.00;61.80;;;;;;5046991;28;20760;-47
2023/04/01 01:51:38;;;;;;;2.30;0.70;;;18.00;61.90;;;;;;5025351;28;20683;-47
2023/04/01 01:54:14;;;;;;;2.03;0.70;;;18.00;61.80;;;;;;5047693;28;20225;-47
2023/04/01 01:56:50;;;;;;;1.10;0.70;;;18.00;62.00;;;;;;5044085;28;20201;-46
2023/04/01 01:59:26;;;;;;;2.33;0.50;;;18.00;62.00;;;;;;5028589;28;20616;-46
2023/04/01 02:01:58;;;;;;;1.10;0.40;;;17.90;62.00;;;;;;5010491;28;20747;-46
2023/04/01 02:04:30;;;;;;;1.47;0.60;;;18.00;61.90;;;;;;5010274;28;20232;-46
2023/04/01 02:07:13;;;;;;;1.33;0.40;;;17.90;61.90;;;;;;5046907;28;20218;-46
2023/04/01 02:09:43;;;;;;;0.97;0.63;;;18.00;62.00;;;;;;5047180;28;20205;-46
2023/04/01 02:12:17;;;;;;;1.33;0.43;;;18.00;61.90;;;;;;5048318;28;20562;-46
2023/04/01 02:15:08;;;;;;;0.73;0.43;;;18.00;61.90;;;;;;5025365;28;20635;-46
2023/04/01 02:17:43;;;;;;;0.97;0.40;;;17.90;61.90;;;;;;5047307;28;20534;-46
2023/04/01 02:20:29;;;;;;;1.80;0.80;;;17.90;62.00;;;;;;5045224;28;20218;-46
2023/04/01 02:22:59;;;;;;;1.90;0.60;;;17.90;62.00;;;;;;5023615;28;20198;-46
2023/04/01 02:25:36;;;;;;;1.00;0.70;;;18.00;62.10;;;;;;5028222;28;20263;-46
2023/04/01 02:28:15;;;;;;;0.67;0.43;;;17.90;62.10;;;;;;5015832;28;20557;-46
2023/04/01 02:30:44;;;;;;;2.10;0.30;;;17.90;62.10;;;;;;5025394;28;20600;-46
2023/04/01 02:33:17;;;;;;;1.23;0.50;;;17.90;62.10;;;;;;5044891;28;20954;-46
2023/04/01 02:35:53;;;;;;;1.07;0.47;;;17.90;62.00;;;;;;5031883;28;20205;-46
2023/04/01 02:38:24;;;;;;;1.23;0.50;;;17.90;62.10;;;;;;5039272;28;20213;-46
2023/04/01 02:41:05;;;;;;;0.93;0.43;;;17.90;62.10;;;;;;5035688;28;20194;-46
2023/04/01 02:43:37;;;;;;;1.33;0.53;;;18.00;62.10;;;;;;5049992;28;20549;-46
2023/04/01 02:46:09;;;;;;;1.73;0.40;;;18.00;62.20;;;;;;5044264;28;20225;-46
2023/04/01 02:48:39;;;;;;;2.13;0.53;;;17.90;62.70;;;;;;5044808;28;20334;-46
2023/04/01 02:51:09;;;;;;;0.40;0.30;;;17.90;62.10;;;;;;5025861;28;20777;-46
2023/04/01 02:53:41;;;;;;;1.37;0.40;;;18.00;62.10;;;;;;5050650;28;20610;-46
2023/04/01 02:56:10;;;;;;;0.87;0.43;;;17.90;62.10;;;;;;5055460;28;20670;-46
2023/04/01 02:58:38;;;;;;;0.97;0.50;;;17.90;62.10;;;;;;5030170;28;20186;-46
2023/04/01 03:01:08;;;;;;;1.50;0.37;;;17.90;62.20;;;;;;5044030;28;20285;-46
2023/04/01 03:03:40;;;;;;;1.03;0.47;;;17.90;62.20;;;;;;5046723;28;20394;-46
2023/04/01 03:06:23;;;;;;;1.40;0.47;;;17.90;62.10;;;;;;5032219;28;20281;-46
2023/04/01 03:08:53;;;;;;;0.83;0.40;;;17.90;62.20;;;;;;5047902;28;20205;-45
2023/04/01 03:11:26;;;;;;;1.13;0.77;;;17.90;62.20;;;;;;5050733;28;20220;-46
2023/04/01 03:13:54;;;;;;;0.47;0.33;;;17.90;62.20;;;;;;5043742;28;20296;-46
2023/04/01 03:16:25;;;;;;;0.97;0.40;;;17.90;62.20;;;;;;5043719;28;20186;-46
2023/04/01 03:18:58;;;;;;;0.83;0.40;;;17.90;62.20;;;;;;5046074;28;20202;-46
2023/04/01 03:21:30;;;;;;;0.67;0.40;;;17.90;62.20;;;;;;5045848;28;20199;-46
2023/04/01 03:24:01;;;;;;;0.73;0.50;;;17.90;62.20;;;;;;5050614;28;20539;-46
2023/04/01 03:26:30;;;;;;;0.40;0.30;;;17.90;62.30;;;;;;5050533;28;20238;-46
2023/04/01 03:29:00;;;;;;;0.57;0.40;;;17.90;62.20;;;;;;5050337;28;20187;-46
2023/04/01 03:31:32;;;;;;;0.40;0.30;;;17.90;62.30;;;;;;5032581;28;20210;-46
2023/04/01 03:34:15;;;;;;;0.73;0.30;;;17.90;62.20;;;;;;5048851;28;20304;-46
2023/04/01 03:36:48;;;;;;;0.50;0.37;;;17.90;62.30;;;;;;5046300;28;20218;-46
2023/04/01 03:39:18;;;;;;;0.93;0.40;;;17.90;62.30;;;;;;5047826;28;20623;-46
2023/04/01 03:41:49;;;;;;;0.77;0.40;;;17.90;62.30;;;;;;5048729;28;20186;-46
2023/04/01 03:44:16;;;;;;;2.03;0.60;;;17.80;62.30;;;;;;5047919;28;20194;-46
2023/04/01 03:46:44;;;;;;;0.70;0.37;;;17.80;62.30;;;;;;5049858;28;20190;-46
2023/04/01 03:49:13;;;;;;;0.30;0.30;;;17.80;62.20;;;;;;5045656;28;20203;-46
2023/04/01 03:51:44;;;;;;;1.27;0.20;;;17.90;62.40;;;;;;5048842;28;20202;-45
2023/04/01 03:54:16;;;;;;;0.40;0.30;;;17.80;62.40;;;;;;5033453;28;20207;-46
2023/04/01 03:56:49;;;;;;;0.73;0.30;;;17.80;62.30;;;;;;5032879;28;20199;-46
2023/04/01 03:59:19;;;;;;;0.50;0.30;;;17.80;62.30;;;;;;5033132;28;20211;-46
2023/04/01 04:01:48;;;;;;;0.20;0.20;;;17.90;62.40;;;;;;5046687;28;20221;-47
2023/04/01 04:04:16;;;;;;;0.40;0.33;;;17.90;62.40;;;;;;5028812;28;20210;-46
2023/04/01 04:06:48;;;;;;;0.83;0.53;;;17.80;62.30;;;;;;5049329;28;20219;-46
2023/04/01 04:09:18;;;;;;;0.60;0.30;;;17.90;62.30;;;;;;5034699;28;20206;-46
2023/04/01 04:11:48;;;;;;;2.87;0.50;;;17.90;62.50;;;;;;5031479;28;20203;-46
2023/04/01 04:14:24;;;;;;;0.60;0.43;;;17.80;62.50;;;;;;5027472;28;20614;-46
2023/04/01 04:16:55;;;;;;;1.90;0.57;;;17.90;62.40;;;;;;5031751;28;20248;-46
2023/04/01 04:19:24;;;;;;;0.30;0.30;;;17.90;62.40;;;;;;5030593;28;20206;-46
2023/04/01 04:21:56;;;;;;;0.73;0.67;;;17.90;62.40;;;;;;5049300;28;20512;-46
2023/04/01 04:24:27;;;;;;;1.67;0.50;;;17.90;62.30;;;;;;5048686;28;20895;-46
2023/04/01 04:26:59;;;;;;;0.83;0.37;;;17.80;62.90;;;;;;5048722;28;20628;-46
2023/04/01 04:29:30;;;;;;;0.90;0.40;;;17.80;62.40;;;;;;5049108;28;20198;-46
2023/04/01 04:32:02;;;;;;;0.70;0.47;;;17.80;62.40;;;;;;5049002;28;20237;-47
2023/04/01 04:34:33;;;;;;;0.77;0.40;;;17.80;62.30;;;;;;5057656;28;20221;-46
2023/04/01 04:37:03;;;;;;;0.57;0.30;;;17.90;62.50;;;;;;5045791;28;20202;-46
2023/04/01 04:39:33;;;;;;;1.97;0.47;;;17.80;62.50;;;;;;5050982;28;20876;-46
2023/04/01 04:42:05;;;;;;;1.00;0.50;;;17.80;62.40;;;;;;5050762;28;20203;-46
2023/04/01 04:44:33;;;;;;;0.53;0.40;;;17.80;62.40;;;;;;5045698;28;20289;-46
2023/04/01 04:47:04;;;;;;;0.50;0.40;;;17.80;62.40;;;;;;5048892;28;20202;-46
2023/04/01 04:49:37;;;;;;;0.60;0.30;;;17.80;62.40;;;;;;5053605;28;20226;-46
2023/04/01 04:52:11;;;;;;;0.40;0.30;;;17.80;62.40;;;;;;5050329;28;20675;-46
2023/04/01 04:54:42;;;;;;;0.77;0.40;;;17.80;62.40;;;;;;5046701;28;20237;-46
2023/04/01 04:57:11;;;;;;;1.70;0.50;;;17.80;62.40;;;;;;5048892;28;20214;-46
2023/04/01 04:59:41;;;;;;;0.63;0.40;;;17.80;62.40;;;;;;5040381;28;20198;-46
2023/04/01 05:02:11;;;;;;;0.67;0.40;;;17.80;62.40;;;;;;5055966;28;20218;-46
2023/04/01 05:04:42;;;;;;;0.43;0.30;;;17.80;62.40;;;;;;5049090;28;20210;-46
2023/04/01 05:07:11;;;;;;;0.37;0.30;;;17.70;62.30;;;;;;5061557;28;20280;-46
2023/04/01 05:09:45;;;;;;;0.40;0.30;;;17.80;62.30;;;;;;5020631;28;20202;-46
2023/04/01 05:12:17;;;;;;;2.10;0.50;;;17.70;62.30;;;;;;5057678;28;20290;-46
2023/04/01 05:14:46;;;;;;;1.17;0.77;;;17.80;62.30;;;;;;5034057;28;20245;-46
2023/04/01 05:17:16;;;;;;;0.40;0.30;;;17.80;62.30;;;;;;5056164;28;20269;-46
2023/04/01 05:19:46;;;;;;;1.80;0.40;;;17.80;62.30;;;;;;5030701;28;20195;-46
2023/04/01 05:22:16;;;;;;;0.87;0.30;;;17.70;62.20;;;;;;5058312;28;20202;-46
2023/04/01 05:24:45;;;;;;;0.87;0.87;;;17.80;62.20;;;;;;5027984;28;20691;-46
2023/04/01 05:27:33;;;;;;;0.40;0.40;;;17.80;62.30;;;;;;5047019;28;20252;-46
2023/04/01 05:30:22;;;;;;;0.90;0.60;;;17.80;62.20;;;;;;5030645;28;20195;-46
2023/04/01 05:32:51;;;;;;;0.73;0.30;;;17.80;62.20;;;;;;5026194;28;20214;-46
2023/04/01 05:35:42;;;;;;;0.50;0.50;;;17.70;62.20;;;;;;5045805;28;20228;-46
2023/04/01 05:38:34;;;;;;;1.00;0.57;;;17.80;62.20;;;;;;5042963;28;20217;-46
2023/04/01 05:41:08;;;;;;;0.60;0.60;;;17.80;62.20;;;;;;5047422;28;20202;-46
2023/04/01 05:43:43;;;;;;;0.87;0.60;;;17.70;62.20;;;;;;5047014;28;20233;-46
2023/04/01 05:46:17;;;;;;;0.30;0.30;;;17.70;62.10;;;;;;5030499;28;20594;-46
2023/04/01 05:49:01;;;;;;;1.43;1.00;;;17.70;62.10;;;;;;5045740;28;20404;-46
2023/04/01 05:51:32;;;;;;;0.70;0.40;;;17.70;62.10;;;;;;5045242;28;20252;-46
2023/04/01 05:54:06;;;;;;;1.60;0.60;;;17.80;62.20;;;;;;5042959;28;20202;-46
2023/04/01 05:56:41;;;;;;;0.57;0.43;;;17.70;62.10;;;;;;5023634;28;20277;-46
2023/04/01 05:59:14;;;;;;;0.50;0.50;;;17.70;62.20;;;;;;5047024;28;20186;-46
2023/04/01 06:01:46;;;;;;;0.77;0.60;;;17.70;62.10;;;;;;5045252;28;20550;-46
2023/04/01 06:04:16;;;;;;;0.87;0.67;;;17.70;62.10;;;;;;5048657;28;20562;-46
2023/04/01 06:06:48;;;;;;;0.57;0.57;;;17.70;62.10;;;;;;5050094;28;20202;-46
2023/04/01 06:09:30;;;;;;;0.40;0.40;;;17.70;62.00;;;;;;5047690;28;20545;-46
2023/04/01 06:12:37;;;;;;;0.70;0.50;;;17.70;62.10;;;;;;5028013;28;20623;-46
2023/04/01 06:15:33;;;;;;;0.50;0.50;;;17.70;62.00;;;;;;5031278;28;20319;-46
2023/04/01 06:18:24;;;;;;;1.23;0.33;;;17.70;62.10;;;;;;5043438;28;20220;-47
2023/04/01 06:21:52;;;;;;;2.00;0.50;;;17.70;62.00;;;;;;5046401;28;20736;-46
2023/04/01 06:25:11;;;;;;;0.93;0.70;;;17.70;62.00;;;;;;5002623;28;20241;-46
2023/04/01 06:27:49;;;;;;;0.40;0.40;;;17.70;62.10;;;;;;5045349;28;20190;-46
2023/04/01 06:30:53;;;;;;;0.47;0.43;;;17.70;62.10;;;;;;5045836;28;20444;-46
2023/04/01 06:34:06;;;;;;;1.07;0.50;;;17.70;62.00;;;;;;5045564;28;20202;-46
2023/04/01 06:36:58;;;;;;;0.63;0.50;;;17.70;62.00;;;;;;5024110;28;20653;-45
2023/04/01 06:39:42;;;;;;;0.70;0.70;;;17.70;62.00;;;;;;5046611;28;20275;-47
2023/04/01 06:42:39;;;;;;;1.13;0.60;;;17.70;62.00;;;;;;5047903;28;20198;-45
2023/04/01 06:45:33;;;;;;;0.40;0.40;;;17.70;62.10;;;;;;5039506;28;20646;-45
2023/04/01 06:48:42;;;;;;;0.70;0.40;;;17.60;62.00;;;;;;5046638;28;20218;-45
2023/04/01 06:51:36;;;;;;;0.80;0.80;;;17.60;61.90;;;;;;5047016;28;20205;-46
2023/04/01 06:54:46;;;;;;;1.10;0.50;;;17.60;61.90;;;;;;5045401;28;20296;-45
2023/04/01 06:57:33;;;;;;;0.80;0.80;;;17.70;61.90;;;;;;5007247;28;20257;-45
2023/04/01 07:00:35;;;;;;;0.87;0.50;;;17.60;61.90;;;;;;5049486;28;20194;-45
2023/04/01 07:03:44;;;;;;;8.10;2.53;;;17.60;61.90;;;;;;5023788;28;20229;-46
2023/04/01 07:06:42;;;;;;;15.00;2.70;;;17.60;62.50;;;;;;4955878;28;20239;-46
2023/04/01 07:09:22;;;;;;;6.33;2.13;;;17.70;62.20;;;;;;4971879;28;20201;-45
2023/04/01 07:12:09;;;;;;;5.80;2.40;;;17.70;62.00;;;;;;4977875;28;20220;-45
2023/04/01 07:14:47;;;;;;;5.20;2.40;;;17.70;62.00;;;;;;4961851;28;20722;-45
2023/04/01 07:17:35;;;;;;;10.43;2.37;;;17.70;61.90;;;;;;4975948;28;20236;-46
2023/04/01 07:20:18;;;;;;;4.57;2.53;;;17.70;61.90;;;;;;4972106;28;20207;-45
2023/04/01 07:23:36;;;;;;;5.37;2.00;;;17.70;61.90;;;;;;4980489;28;20291;-45
2023/04/01 07:26:21;;;;;;;6.93;2.20;;;17.60;62.00;;;;;;4976300;28;20213;-46
2023/04/01 07:28:53;;;;;;;4.63;2.47;;;17.60;61.80;;;;;;4955570;28;20205;-46
2023/04/01 07:32:01;;;;;;;4.07;2.03;;;17.70;62.20;;;;;;4967176;28;20267;-46
2023/04/01 07:35:00;;;;;;;4.57;2.07;;;17.70;62.90;;;;;;4973607;28;20216;-46
2023/04/01 07:37:58;;;;;;;4.13;1.90;;;17.70;62.80;;;;;;5028510;28;20214;-46
2023/04/01 07:41:05;;;;;;;3.27;1.73;;;17.70;62.80;;;;;;5028686;28;20219;-46
2023/04/01 07:44:01;;;;;;;12.20;1.70;;;17.70;63.00;;;;;;5031546;28;20202;-46
2023/04/01 07:47:10;;;;;;;3.77;1.73;;;17.70;63.00;;;;;;5041130;28;20629;-46
2023/04/01 07:50:17;;;;;;;4.33;1.50;;;17.70;63.70;;;;;;5047160;28;20244;-45
2023/04/01 07:53:06;;;;;;;5.97;1.70;;;17.70;63.90;;;;;;5029461;28;20207;-46
2023/04/01 07:56:03;;;;;;;3.30;1.40;;;17.70;63.20;;;;;;5048963;28;20276;-46
2023/04/01 07:59:15;;;;;;;4.60;1.47;;;17.70;63.30;;;;;;5043399;28;20194;-46
2023/04/01 08:02:02;;;;;;;2.43;1.50;;;17.70;64.00;;;;;;5045941;28;20217;-46
2023/04/01 08:05:03;;;;;;;5.67;1.63;;;17.80;63.80;;;;;;5043895;28;20195;-47
2023/04/01 08:08:20;;;;;;;2.97;1.23;;;17.70;63.50;;;;;;5049167;28;20206;-45
2023/04/01 08:11:05;;;;;;;3.07;1.47;;;17.70;63.30;;;;;;5042957;28;20209;-46
2023/04/01 08:14:34;;;;;;;3.67;1.50;;;17.70;63.90;;;;;;5042919;28;20326;-46
2023/04/01 08:17:49;;;;;;;3.33;1.23;;;17.70;63.70;;;;;;4968877;28;20635;-45
2023/04/01 08:20:40;;;;;;;3.77;1.67;;;17.70;63.20;;;;;;4905149;29;20232;-46
2023/04/01 08:23:41;;;;;;;2.47;1.27;;;17.70;63.40;;;;;;4910418;29;20202;-45
2023/04/01 08:26:26;;;;;;;5.33;1.30;;;17.80;63.40;;;;;;5030034;28;20206;-45
2023/04/01 08:29:20;;;;;;;3.33;1.00;;;17.70;63.10;;;;;;5030931;28;20194;-46
2023/04/01 08:32:06;;;;;;;4.77;1.10;;;17.70;63.10;;;;;;5045444;28;20237;-46
2023/04/01 08:34:41;;;;;;;2.20;1.40;;;17.80;63.10;;;;;;5027249;28;20191;-45
2023/04/01 08:37:23;;;;;;;4.63;1.50;;;17.80;62.90;;;;;;4993501;28;20214;-46
2023/04/01 08:40:37;;;;;;;2.20;1.20;;;17.80;63.00;;;;;;5031447;28;20639;-46
2023/04/01 08:43:31;;;;;;;3.87;1.53;;;17.80;63.10;;;;;;5047136;28;20213;-46
2023/04/01 08:46:21;;;;;;;2.30;1.40;;;17.70;62.70;;;;;;5043185;28;20667;-46
2023/04/01 08:49:28;;;;;;;4.13;1.50;;;17.80;62.80;;;;;;5049717;28;20577;-45
2023/04/01 08:52:19;;;;;;;3.60;1.00;;;17.70;62.70;;;;;;5043157;28;20222;-46
2023/04/01 08:55:28;;;;;;;5.67;1.60;;;17.80;62.70;;;;;;5042278;28;20237;-46
2023/04/01 08:58:28;;;;;;;3.90;1.63;;;17.80;62.90;;;;;;5010055;28;20551;-46
2023/04/01 09:01:30;;;;;;;4.23;1.40;;;17.80;62.70;;;;;;5043376;28;20548;-46
2023/04/01 09:04:24;;;;;;;6.27;1.60;;;17.80;62.70;;;;;;5045052;28;21245;-46
2023/04/01 09:07:21;;;;;;;2.97;1.17;;;17.70;62.50;;;;;;5028307;28;20245;-45
2023/04/01 09:10:25;;;;;;;4.20;1.87;;;17.80;63.00;;;;;;5043787;28;20222;-45
2023/04/01 09:13:49;;;;;;;2.33;1.70;;;17.80;62.40;;;;;;5041431;28;20218;-46
2023/04/01 09:16:42;;;;;;;3.03;2.07;;;17.80;62.40;;;;;;4962262;28;20864;-46
2023/04/01 09:19:35;;;;;;;4.63;1.60;;;17.80;62.30;;;;;;5044213;28;20195;-45
2023/04/01 09:22:22;;;;;;;3.20;1.60;;;17.70;62.20;;;;;;5046808;28;20194;-45
2023/04/01 09:25:30;;;;;;;3.47;1.77;;;17.80;62.30;;;;;;5030617;28;20232;-46
2023/04/01 09:28:22;;;;;;;3.57;1.70;;;17.80;62.20;;;;;;5044580;28;20829;-46
2023/04/01 09:31:20;;;;;;;3.40;1.87;;;17.80;62.20;;;;;;5029751;28;20202;-45
2023/04/01 09:34:33;;;;;;;2.63;1.77;;;17.80;62.20;;;;;;5046164;28;20194;-45
2023/04/01 09:38:00;;;;;;;4.00;1.80;;;17.80;62.10;;;;;;5035561;28;20210;-47
2023/04/01 09:41:02;;;;;;;3.83;1.97;;;17.80;62.10;;;;;;4961882;28;20208;-45
2023/04/01 09:43:50;;;;;;;5.27;2.30;;;17.80;62.30;;;;;;4943657;28;20212;-46
2023/04/01 09:46:31;;;;;;;6.77;2.10;;;17.90;62.40;;;;;;5036311;28;20628;-45
2023/04/01 09:49:42;;;;;;;3.93;1.87;;;18.00;62.40;;;;;;5047645;28;20222;-46
2023/04/01 09:52:49;;;;;;;4.10;2.10;;;18.00;62.00;;;;;;4964262;28;20212;-46
2023/04/01 09:55:59;;;;;;;3.53;2.03;;;18.00;61.80;;;;;;5045259;28;20201;-46
2023/04/01 09:59:26;;;;;;;101.40;22.97;;;18.00;62.80;;;;;;5042006;28;20184;-45
2023/04/01 10:02:25;;;;;;;186.33;42.23;;;18.10;63.40;;;;;;5038483;28;20275;-45
2023/04/01 10:05:13;;;;;;;196.87;46.00;;;18.10;64.50;;;;;;5045055;28;20202;-45
2023/04/01 10:08:20;;;;;;;203.93;43.67;;;18.10;64.60;;;;;;5032549;28;20198;-45
2023/04/01 10:11:41;;;;;;;178.20;40.33;;;18.10;64.70;;;;;;5050766;28;20579;-46
2023/04/01 10:15:00;;;;;;;165.10;38.93;;;18.00;64.80;;;;;;4969033;28;20413;-45
2023/04/01 10:18:04;;;;;;;142.97;36.40;;;18.00;65.10;;;;;;4948512;28;20250;-46
2023/04/01 10:21:14;;;;;;;129.20;36.10;;;18.00;65.10;;;;;;4966343;28;20212;-45
2023/04/01 10:24:06;;;;;;;136.43;31.10;;;18.00;65.30;;;;;;4973622;28;20228;-46
2023/04/01 10:27:00;;;;;;;114.87;29.57;;;18.00;65.60;;;;;;4961021;28;20296;-46
2023/04/01 10:30:02;;;;;;;116.97;29.10;;;18.00;65.70;;;;;;5031719;28;20214;-45
2023/04/01 10:32:55;;;;;;;120.83;28.33;;;18.00;65.90;;;;;;5024983;28;20206;-45
2023/04/01 10:35:57;;;;;;;101.83;28.30;;;18.00;65.70;;;;;;5047754;28;20241;-45
2023/04/01 10:39:07;;;;;;;78.23;23.27;;;18.00;66.10;;;;;;5041941;28;20213;-45
2023/04/01 10:42:15;;;;;;;74.30;21.63;;;18.00;65.70;;;;;;5045853;28;20205;-45
2023/04/01 10:45:14;;;;;;;74.20;20.93;;;18.00;66.00;;;;;;4983911;28;20214;-46
2023/04/01 10:48:27;;;;;;;72.47;20.73;;;18.00;66.30;;;;;;4983569;28;20220;-46
2023/04/01 10:51:16;;;;;;;69.53;19.87;;;18.00;66.40;;;;;;4982887;28;20262;-46
2023/04/01 10:54:20;;;;;;;55.27;16.87;;;18.00;66.40;;;;;;4984253;28;20677;-46
2023/04/01 10:57:19;;;;;;;66.50;18.30;;;18.00;66.20;;;;;;4986189;28;20324;-45
2023/04/01 11:00:07;;;;;;;53.07;16.40;;;18.00;66.70;;;;;;4973736;28;20300;-45
2023/04/01 11:03:07;;;;;;;57.07;15.63;;;18.00;66.70;;;;;;4979561;28;20339;-46
2023/04/01 11:06:12;;;;;;;48.90;14.97;;;18.00;66.70;;;;;;4982902;28;20204;-46
2023/04/01 11:09:20;;;;;;;50.00;14.27;;;18.00;66.90;;;;;;5046397;28;20281;-45
2023/04/01 11:12:35;;;;;;;48.00;13.87;;;18.00;66.90;;;;;;5048460;28;20258;-45
2023/04/01 11:15:43;;;;;;;48.20;14.67;;;18.00;67.10;;;;;;5044004;28;20230;-45
2023/04/01 11:18:44;;;;;;;41.37;13.07;;;18.00;67.60;;;;;;5053501;28;20190;-46
2023/04/01 11:21:31;;;;;;;40.97;12.20;;;18.00;67.10;;;;;;5049948;28;20204;-45
2023/04/01 11:24:31;;;;;;;35.03;10.87;;;18.00;67.10;;;;;;5056028;28;20189;-46
2023/04/01 11:27:37;;;;;;;37.90;11.93;;;18.00;66.70;;;;;;5049809;28;20205;-45
2023/04/01 11:30:41;;;;;;;34.73;10.63;;;18.00;66.60;;;;;;5049893;28;20193;-45
2023/04/01 11:33:52;;;;;;;39.20;11.17;;;18.00;66.40;;;;;;5050904;28;20210;-46
2023/04/01 11:36:43;;;;;;;35.13;10.80;;;18.00;66.60;;;;;;5041581;28;20221;-46
2023/04/01 11:39:50;;;;;;;27.57;9.47;;;18.00;66.80;;;;;;5047776;28;20190;-46
2023/04/01 11:42:54;;;;;;;28.53;9.63;;;18.00;66.50;;;;;;5045062;28;20264;-45
2023/04/01 11:45:42;;;;;;;26.33;8.77;;;18.00;66.50;;;;;;5030550;28;20203;-46
2023/04/01 11:48:54;;;;;;;23.73;8.43;;;18.00;66.50;;;;;;5045185;28;20218;-45
2023/04/01 11:51:58;;;;;;;25.13;8.53;;;18.00;66.50;;;;;;5049228;28;20527;-46
2023/04/01 11:55:08;;;;;;;19.57;7.70;;;18.00;66.60;;;;;;5046258;28;20220;-45
2023/04/01 11:58:12;;;;;;;24.60;7.53;;;18.00;66.50;;;;;;5048041;28;20327;-46
2023/04/01 12:00:51;;;;;;;21.80;7.10;;;18.00;66.50;;;;;;5028720;28;21231;-46
2023/04/01 12:03:56;;;;;;;19.17;7.23;;;18.00;66.50;;;;;;5050374;28;20202;-46
2023/04/01 12:06:48;;;;;;;18.57;6.83;;;18.00;66.30;;;;;;5044344;28;20267;-46
2023/04/01 12:09:50;;;;;;;15.97;6.57;;;18.00;66.30;;;;;;5028025;28;20206;-45
2023/04/01 12:12:42;;;;;;;14.67;5.53;;;18.00;66.50;;;;;;5057953;28;20221;-45
2023/04/01 12:15:53;;;;;;;11.03;5.37;;;18.00;66.60;;;;;;5050210;28;20238;-46
2023/04/01 12:19:01;;;;;;;19.03;6.63;;;18.00;66.70;;;;;;5050726;28;20656;-46
2023/04/01 12:21:47;;;;;;;11.40;5.23;;;18.00;66.60;;;;;;5051515;28;20198;-46
2023/04/01 12:25:07;;;;;;;15.23;5.20;;;18.00;66.40;;;;;;5054202;28;20206;-46
2023/04/01 12:28:20;;;;;;;12.27;5.00;;;18.00;66.70;;;;;;5007094;28;20209;-46
2023/04/01 12:31:23;;;;;;;12.13;4.57;;;18.00;66.60;;;;;;5008608;28;20275;-46
2023/04/01 12:34:15;;;;;;;9.97;4.53;;;18.00;66.70;;;;;;5001759;28;20263;-46
2023/04/01 12:37:23;;;;;;;11.53;4.50;;;18.00;66.60;;;;;;5044189;28;20540;-46
2023/04/01 12:40:14;;;;;;;10.93;4.00;;;18.00;66.70;;;;;;5050697;28;20562;-46
2023/04/01 12:43:22;;;;;;;10.03;4.60;;;18.00;66.70;;;;;;5053029;28;20195;-46
2023/04/01 12:46:24;;;;;;;6.97;3.90;;;18.10;67.50;;;;;;5050581;28;20297;-46
2023/04/01 12:49:14;;;;;;;10.30;4.27;;;18.00;67.50;;;;;;5049016;28;20265;-46
2023/04/01 12:52:17;;;;;;;8.07;3.40;;;18.10;68.10;;;;;;5048772;28;20218;-46
2023/04/01 12:55:19;;;;;;;8.60;3.97;;;18.10;67.50;;;;;;5053870;28;20198;-46
2023/04/01 12:58:28;;;;;;;10.10;3.53;;;18.10;67.70;;;;;;5053975;28;20195;-45
2023/04/01 13:01:21;;;;;;;7.43;3.70;;;18.10;68.40;;;;;;5054304;28;20205;-46
2023/04/01 13:04:11;;;;;;;6.97;2.50;;;18.20;68.00;;;;;;5043732;28;20282;-46
2023/04/01 13:06:58;;;;;;;6.93;2.70;;;18.20;67.40;;;;;;5044140;28;20604;-46
2023/04/01 13:10:04;;;;;;;6.40;2.80;;;18.20;67.50;;;;;;5058495;28;20202;-46
2023/04/01 13:13:15;;;;;;;6.63;2.73;;;18.30;67.50;;;;;;5048291;28;20258;-46
2023/04/01 13:16:19;;;;;;;7.93;3.27;;;18.30;67.10;;;;;;5041849;28;20682;-45
2023/04/01 13:19:20;;;;;;;9.20;2.83;;;18.30;67.60;;;;;;4992987;28;20268;-45
2023/04/01 13:22:08;;;;;;;9.37;2.70;;;18.40;67.30;;;;;;5047381;28;20608;-46
2023/04/01 13:25:02;;;;;;;9.90;3.03;;;18.30;67.00;;;;;;5023691;28;20186;-46
2023/04/01 13:27:59;;;;;;;5.13;2.33;;;18.40;66.50;;;;;;5044738;28;20551;-45
2023/04/01 13:30:38;;;;;;;11.67;3.20;;;18.40;67.20;;;;;;5027077;28;20205;-46
2023/04/01 13:34:02;;;;;;;9.87;2.80;;;18.40;67.10;;;;;;5049919;28;20605;-45
2023/04/01 13:36:55;;;;;;;10.00;3.13;;;18.40;67.30;;;;;;4941625;29;20418;-46
2023/04/01 13:40:00;;;;;;;11.67;3.50;;;18.50;66.40;;;;;;5041768;28;20297;-45
2023/04/01 13:43:21;;;;;;;8.00;2.57;;;18.50;67.10;;;;;;5041170;28;20222;-46
2023/04/01 13:46:08;;;;;;;8.10;2.93;;;18.50;66.70;;;;;;5033067;28;20202;-46
2023/04/01 13:49:31;;;;;;;9.53;3.03;;;18.50;66.70;;;;;;5046735;28;20197;-46
2023/04/01 13:52:45;;;;;;;10.53;3.33;;;18.50;66.50;;;;;;4983868;28;20637;-45
2023/04/01 13:55:27;;;;;;;9.00;3.30;;;18.50;66.90;;;;;;4974439;28;20247;-46
2023/04/01 13:58:34;;;;;;;7.93;2.60;;;18.60;66.60;;;;;;4983720;28;20906;-46
2023/04/01 14:01:29;;;;;;;10.40;3.37;;;18.60;66.80;;;;;;4981879;28;21035;-46
2023/04/01 14:04:33;;;;;;;10.73;3.07;;;18.60;67.10;;;;;;4960183;28;20677;-46
2023/04/01 14:07:32;;;;;;;4.90;2.63;;;18.60;67.00;;;;;;4979564;28;20201;-46
2023/04/01 14:10:45;;;;;;;7.17;2.67;;;18.60;67.00;;;;;;4982870;28;20199;-46
2023/04/01 14:13:40;;;;;;;4.93;2.43;;;18.70;66.90;;;;;;4976547;28;20212;-46
2023/04/01 14:16:38;;;;;;;7.83;2.80;;;18.70;67.00;;;;;;5018798;28;20241;-46
2023/04/01 14:19:43;;;;;;;7.27;2.40;;;18.70;66.80;;;;;;5047603;28;20256;-46
2023/04/01 14:22:45;;;;;;;5.67;2.63;;;18.70;66.50;;;;;;5047417;28;20206;-46
2023/04/01 14:25:31;;;;;;;4.47;2.40;;;18.70;67.00;;;;;;5055820;28;20202;-45
2023/04/01 14:28:30;;;;;;;4.50;2.40;;;18.70;65.00;;;;;;5043110;28;20280;-45
2023/04/01 14:31:35;;;;;;;4.70;2.30;;;18.70;64.40;;;;;;5049123;28;20190;-46
2023/04/01 14:34:44;;;;;;;5.07;2.23;;;18.80;64.30;;;;;;5047009;28;20203;-46